Time;durP1;ratioP1;P1;durP2;ratioP2;P2;SDS_P1;SDS_P2;PMS_P1;PMS_P2;Temp;Humidity;BMP_temperature;BMP_pressure;BME280_temperature;BME280_humidity;BME280_pressure;Samples;Min_cycle;Max_cycle;Signal;HPM_P1;HPM_P2
2021/03/15 00:00:06;;;;;;;9.73;5.90;;;2.80;99.90;;;;;;482159;245;27513;-72
2021/03/15 00:02:07;;;;;;;7.45;5.65;;;2.80;99.90;;;;;;482160;246;27503;-73
2021/03/15 00:04:08;;;;;;;9.30;5.70;;;2.80;99.90;;;;;;482169;246;27581;-72
2021/03/15 00:06:09;;;;;;;10.40;5.90;;;2.80;99.90;;;;;;482160;246;27528;-72
2021/03/15 00:08:11;;;;;;;6.78;4.87;;;2.80;99.90;;;;;;482174;246;27516;-73
2021/03/15 00:10:12;;;;;;;7.93;5.28;;;2.90;99.90;;;;;;482165;246;27965;-72
2021/03/15 00:12:13;;;;;;;10.23;4.95;;;2.90;99.90;;;;;;482049;247;28014;-73
2021/03/15 00:14:14;;;;;;;8.32;5.30;;;2.90;99.90;;;;;;482171;246;28037;-73
2021/03/15 00:16:21;;;;;;;15.60;5.70;;;2.90;99.90;;;;;;482169;246;27486;-72
2021/03/15 00:18:23;;;;;;;10.23;5.53;;;2.90;99.90;;;;;;482167;246;27684;-73
2021/03/15 00:20:24;;;;;;;16.15;5.82;;;2.90;99.90;;;;;;482162;246;27498;-72
2021/03/15 00:22:25;;;;;;;13.55;6.57;;;3.00;99.90;;;;;;482164;246;27593;-72
2021/03/15 00:24:26;;;;;;;9.82;5.20;;;2.90;99.90;;;;;;482181;246;27499;-73
2021/03/15 00:26:28;;;;;;;10.48;4.72;;;2.90;99.90;;;;;;482169;246;27510;-72
2021/03/15 00:28:29;;;;;;;14.48;5.35;;;2.90;99.90;;;;;;482169;246;27603;-74
2021/03/15 00:30:30;;;;;;;10.35;5.20;;;2.90;99.90;;;;;;482179;246;27928;-72
2021/03/15 00:32:31;;;;;;;14.75;5.75;;;2.90;99.90;;;;;;482174;246;27969;-72
2021/03/15 00:34:33;;;;;;;13.82;6.10;;;2.90;99.90;;;;;;482163;246;27956;-74
2021/03/15 00:36:34;;;;;;;11.65;6.25;;;2.90;99.90;;;;;;482159;246;27510;-72
2021/03/15 00:38:35;;;;;;;13.65;6.37;;;2.90;99.90;;;;;;482181;246;27520;-74
2021/03/15 00:40:36;;;;;;;13.55;5.93;;;2.90;99.90;;;;;;482176;246;27499;-72
2021/03/15 00:42:38;;;;;;;12.50;6.05;;;3.00;99.90;;;;;;482156;246;27506;-72
2021/03/15 00:44:39;;;;;;;7.60;4.95;;;3.00;99.90;;;;;;482156;246;28048;-73
2021/03/15 00:46:40;;;;;;;11.40;6.90;;;3.00;99.90;;;;;;482177;246;27506;-72
2021/03/15 00:48:41;;;;;;;9.77;7.15;;;3.00;99.90;;;;;;482171;246;27494;-74
2021/03/15 00:50:43;;;;;;;13.00;6.65;;;3.00;99.90;;;;;;482207;246;27950;-72
2021/03/15 00:52:44;;;;;;;12.73;6.75;;;3.00;99.90;;;;;;482172;246;28004;-72
2021/03/15 00:54:45;;;;;;;14.27;6.90;;;3.00;99.90;;;;;;482152;246;28081;-73
2021/03/15 00:56:46;;;;;;;10.18;7.40;;;3.00;99.90;;;;;;482178;246;27502;-72
2021/03/15 00:58:48;;;;;;;15.98;7.07;;;3.00;99.90;;;;;;482172;246;27527;-74
2021/03/15 01:00:49;;;;;;;13.57;6.12;;;3.00;99.90;;;;;;482169;246;27502;-72
2021/03/15 01:02:50;;;;;;;10.93;7.53;;;3.00;99.90;;;;;;482170;246;27600;-73
2021/03/15 01:04:51;;;;;;;14.07;6.97;;;3.00;99.90;;;;;;482166;246;27483;-73
2021/03/15 01:06:53;;;;;;;13.25;7.35;;;3.10;99.90;;;;;;482161;246;27509;-73
2021/03/15 01:08:54;;;;;;;11.35;6.60;;;3.10;99.90;;;;;;482164;246;27503;-74
2021/03/15 01:10:55;;;;;;;12.90;6.90;;;3.00;99.90;;;;;;482201;245;28047;-72
2021/03/15 01:12:56;;;;;;;14.80;7.65;;;3.10;99.90;;;;;;482143;246;28183;-73
2021/03/15 01:14:58;;;;;;;11.50;7.47;;;3.10;99.90;;;;;;482155;246;27941;-73
2021/03/15 01:16:59;;;;;;;15.02;7.05;;;3.10;99.90;;;;;;482160;246;27504;-73
2021/03/15 01:19:00;;;;;;;12.07;6.70;;;3.10;99.90;;;;;;482158;243;27513;-73
2021/03/15 01:21:01;;;;;;;13.52;6.32;;;3.00;99.90;;;;;;482158;246;27519;-73
2021/03/15 01:23:03;;;;;;;16.42;7.03;;;3.00;99.90;;;;;;482161;245;27530;-73
2021/03/15 01:25:04;;;;;;;12.45;6.97;;;3.00;99.90;;;;;;482167;246;27504;-72
2021/03/15 01:27:05;;;;;;;8.98;6.50;;;3.00;99.90;;;;;;482163;246;27514;-72
2021/03/15 01:29:06;;;;;;;16.75;6.72;;;3.00;99.90;;;;;;482195;246;27620;-72
2021/03/15 01:31:08;;;;;;;15.25;6.40;;;3.00;99.90;;;;;;482168;246;27985;-72
2021/03/15 01:33:09;;;;;;;12.75;6.95;;;2.90;99.90;;;;;;482173;246;29191;-73
2021/03/15 01:35:10;;;;;;;11.38;6.25;;;2.90;99.90;;;;;;482186;246;27528;-72
2021/03/15 01:37:11;;;;;;;13.15;7.30;;;2.90;99.90;;;;;;482191;246;27611;-72
2021/03/15 01:39:13;;;;;;;17.05;7.93;;;2.90;99.90;;;;;;482180;246;27514;-72
2021/03/15 01:41:14;;;;;;;14.45;6.80;;;2.90;99.90;;;;;;482171;246;27510;-72
2021/03/15 01:43:15;;;;;;;21.77;7.43;;;3.00;99.90;;;;;;482179;246;27519;-74
2021/03/15 01:45:16;;;;;;;12.23;7.00;;;3.00;99.90;;;;;;482179;246;27513;-72
2021/03/15 01:47:18;;;;;;;15.65;7.35;;;3.00;99.90;;;;;;482179;246;27519;-73
2021/03/15 01:49:19;;;;;;;15.00;8.10;;;3.00;99.90;;;;;;482182;246;28035;-72
2021/03/15 01:51:20;;;;;;;12.13;7.90;;;3.00;99.90;;;;;;482185;246;27969;-73
2021/03/15 01:53:21;;;;;;;15.20;7.28;;;3.00;99.90;;;;;;482179;246;28057;-72
2021/03/15 01:55:23;;;;;;;12.48;6.72;;;3.00;99.90;;;;;;482202;246;27579;-72
2021/03/15 01:57:24;;;;;;;17.52;7.87;;;3.10;99.90;;;;;;482224;246;27515;-73
2021/03/15 01:59:25;;;;;;;18.52;7.43;;;3.10;99.90;;;;;;482228;246;27602;-72
2021/03/15 02:01:26;;;;;;;19.40;7.35;;;3.10;99.90;;;;;;482225;246;27622;-72
2021/03/15 02:03:28;;;;;;;11.20;7.03;;;3.10;99.90;;;;;;482258;246;27616;-72
2021/03/15 02:05:29;;;;;;;23.38;8.18;;;3.10;99.90;;;;;;482242;246;27533;-71
2021/03/15 02:07:30;;;;;;;17.27;7.93;;;3.10;99.90;;;;;;482220;246;27615;-72
2021/03/15 02:09:32;;;;;;;15.65;7.97;;;3.10;99.90;;;;;;482188;246;27967;-72
2021/03/15 02:11:33;;;;;;;16.67;7.43;;;3.20;99.90;;;;;;482177;245;27981;-73
2021/03/15 02:13:34;;;;;;;16.27;7.62;;;3.20;99.90;;;;;;482164;243;29063;-74
2021/03/15 02:15:35;;;;;;;20.00;7.45;;;3.20;99.90;;;;;;482174;246;27589;-72
2021/03/15 02:17:37;;;;;;;16.62;7.37;;;3.20;99.90;;;;;;482188;246;27495;-73
2021/03/15 02:19:38;;;;;;;13.27;7.18;;;3.20;99.90;;;;;;482188;246;27505;-72
2021/03/15 02:21:39;;;;;;;12.73;7.68;;;3.10;99.90;;;;;;482176;243;27576;-72
2021/03/15 02:23:40;;;;;;;13.43;6.60;;;3.10;99.90;;;;;;482183;245;27609;-73
2021/03/15 02:25:42;;;;;;;21.48;8.15;;;3.10;99.90;;;;;;482180;246;27515;-72
2021/03/15 02:27:43;;;;;;;16.48;7.12;;;3.20;99.90;;;;;;482175;246;27517;-74
2021/03/15 02:29:44;;;;;;;14.30;7.20;;;3.20;99.90;;;;;;482164;246;28069;-72
2021/03/15 02:31:45;;;;;;;16.80;7.85;;;3.20;99.90;;;;;;482172;246;27976;-72
2021/03/15 02:33:47;;;;;;;11.25;6.80;;;3.20;99.90;;;;;;482179;246;27511;-72
2021/03/15 02:35:48;;;;;;;12.77;6.12;;;3.20;99.90;;;;;;482163;245;27519;-72
2021/03/15 02:37:49;;;;;;;15.43;7.55;;;3.20;99.90;;;;;;482175;246;27627;-72
2021/03/15 02:39:50;;;;;;;15.75;7.07;;;3.20;99.90;;;;;;482163;246;27614;-73
2021/03/15 02:41:52;;;;;;;16.42;6.25;;;3.20;99.90;;;;;;482175;245;27522;-75
2021/03/15 02:43:53;;;;;;;17.42;7.12;;;3.30;99.90;;;;;;482177;246;27514;-72
2021/03/15 02:45:54;;;;;;;11.63;6.60;;;3.30;99.90;;;;;;482174;243;27619;-72
2021/03/15 02:47:55;;;;;;;17.95;6.55;;;3.20;99.90;;;;;;482172;246;27499;-72
2021/03/15 02:49:57;;;;;;;12.35;6.60;;;3.20;99.90;;;;;;482181;246;27970;-73
2021/03/15 02:51:58;;;;;;;15.90;7.55;;;3.30;99.90;;;;;;482175;246;27982;-73
2021/03/15 02:53:59;;;;;;;13.27;6.95;;;3.30;99.90;;;;;;482172;246;27618;-72
2021/03/15 02:56:01;;;;;;;18.65;7.07;;;3.30;99.90;;;;;;482179;246;27523;-73
2021/03/15 02:58:02;;;;;;;18.12;7.22;;;3.30;99.90;;;;;;482187;246;27493;-71
2021/03/15 03:00:03;;;;;;;16.73;7.07;;;3.30;99.90;;;;;;482174;246;27494;-72
2021/03/15 03:02:04;;;;;;;19.15;7.97;;;3.30;99.90;;;;;;482169;246;27505;-73
2021/03/15 03:04:05;;;;;;;12.77;6.82;;;3.30;99.90;;;;;;482183;246;27613;-72
2021/03/15 03:06:07;;;;;;;15.30;6.87;;;3.30;99.90;;;;;;482173;246;27589;-73
2021/03/15 03:08:08;;;;;;;20.92;6.80;;;3.30;99.90;;;;;;482187;246;27946;-72
2021/03/15 03:10:09;;;;;;;16.90;7.55;;;3.30;99.90;;;;;;482194;246;27971;-72
2021/03/15 03:12:10;;;;;;;14.93;7.35;;;3.30;99.90;;;;;;482211;246;28089;-72
2021/03/15 03:14:12;;;;;;;16.92;7.65;;;3.40;99.90;;;;;;482185;243;27581;-72
2021/03/15 03:16:13;;;;;;;14.77;6.97;;;3.40;99.90;;;;;;482220;246;27620;-73
2021/03/15 03:18:15;;;;;;;24.33;6.15;;;3.40;99.90;;;;;;482232;246;27502;-72
2021/03/15 03:20:15;;;;;;;18.00;7.80;;;3.40;99.90;;;;;;482224;246;27521;-73
2021/03/15 03:22:17;;;;;;;21.08;8.23;;;3.40;99.90;;;;;;482216;246;27617;-73
2021/03/15 03:24:18;;;;;;;18.98;8.05;;;3.40;99.90;;;;;;482206;246;27598;-73
2021/03/15 03:26:19;;;;;;;12.55;8.10;;;3.40;99.90;;;;;;482181;243;27625;-73
2021/03/15 03:28:20;;;;;;;18.17;7.30;;;3.40;99.90;;;;;;482172;246;28017;-72
2021/03/15 03:30:22;;;;;;;19.87;8.15;;;3.40;99.90;;;;;;482166;246;27989;-72
2021/03/15 03:32:23;;;;;;;20.90;6.80;;;3.40;99.90;;;;;;482196;246;27975;-73
2021/03/15 03:34:24;;;;;;;22.75;7.35;;;3.40;99.90;;;;;;482175;246;27610;-73
2021/03/15 03:36:25;;;;;;;15.30;7.20;;;3.40;99.90;;;;;;482165;246;27529;-74
2021/03/15 03:38:27;;;;;;;12.98;6.78;;;3.30;99.90;;;;;;482174;246;28093;-72
2021/03/15 03:40:28;;;;;;;15.02;7.25;;;3.30;99.90;;;;;;482166;246;27501;-72
2021/03/15 03:42:29;;;;;;;14.20;6.20;;;3.30;99.90;;;;;;482158;246;27507;-72
2021/03/15 03:44:30;;;;;;;15.70;6.75;;;3.30;99.90;;;;;;482166;246;27615;-73
2021/03/15 03:46:32;;;;;;;17.40;5.60;;;3.40;99.90;;;;;;482171;246;28121;-73
2021/03/15 03:48:33;;;;;;;13.05;6.12;;;3.30;99.90;;;;;;482153;246;28090;-73
2021/03/15 03:50:34;;;;;;;11.25;5.62;;;3.30;99.90;;;;;;482149;246;28137;-72
2021/03/15 03:52:35;;;;;;;8.57;5.43;;;3.30;99.90;;;;;;482167;246;27620;-72
2021/03/15 03:54:37;;;;;;;15.52;6.20;;;3.30;99.90;;;;;;482169;246;27623;-73
2021/03/15 03:56:38;;;;;;;16.40;6.10;;;3.20;99.90;;;;;;482149;246;27519;-73
2021/03/15 03:58:39;;;;;;;12.18;5.80;;;3.20;99.90;;;;;;482173;243;27643;-73
2021/03/15 04:00:40;;;;;;;11.10;5.50;;;3.20;99.90;;;;;;482151;246;27646;-73
2021/03/15 04:02:42;;;;;;;9.75;5.65;;;3.30;99.90;;;;;;482168;246;27509;-72
2021/03/15 04:04:43;;;;;;;12.15;6.30;;;3.30;99.90;;;;;;482206;246;27596;-73
2021/03/15 04:06:44;;;;;;;9.70;5.15;;;3.30;99.90;;;;;;482158;243;27520;-75
2021/03/15 04:08:46;;;;;;;8.52;5.05;;;3.30;99.90;;;;;;482178;243;27965;-72
2021/03/15 04:10:47;;;;;;;9.63;5.25;;;3.20;99.90;;;;;;482064;247;28073;-73
2021/03/15 04:12:48;;;;;;;11.45;4.80;;;3.10;99.90;;;;;;482154;245;27971;-73
2021/03/15 04:14:49;;;;;;;8.25;5.15;;;3.10;99.90;;;;;;482161;246;27515;-73
2021/03/15 04:16:50;;;;;;;7.78;4.62;;;3.10;99.90;;;;;;482156;246;27511;-73
2021/03/15 04:18:52;;;;;;;6.97;5.20;;;3.00;99.90;;;;;;482169;246;27502;-72
2021/03/15 04:20:53;;;;;;;5.75;3.72;;;3.00;99.90;;;;;;464224;255;27559;-74
2021/03/15 04:22:54;;;;;;;10.13;5.12;;;3.00;99.90;;;;;;465345;253;27538;-73
2021/03/15 04:24:55;;;;;;;6.18;4.60;;;3.00;99.90;;;;;;465322;253;27533;-72
2021/03/15 04:26:57;;;;;;;6.97;4.32;;;3.00;99.90;;;;;;465328;253;27551;-73
2021/03/15 04:28:58;;;;;;;7.40;4.40;;;3.00;99.90;;;;;;465327;253;27537;-73
2021/03/15 04:30:59;;;;;;;7.10;4.70;;;3.10;99.90;;;;;;465336;253;27646;-72
2021/03/15 04:33:00;;;;;;;7.00;4.75;;;3.10;99.90;;;;;;465329;253;27975;-72
2021/03/15 04:35:02;;;;;;;5.78;4.40;;;3.00;99.90;;;;;;468832;251;27992;-72
2021/03/15 04:37:03;;;;;;;10.35;5.15;;;3.10;99.90;;;;;;472676;250;28022;-72
2021/03/15 04:39:04;;;;;;;6.00;4.20;;;3.10;99.90;;;;;;472672;250;28001;-72
2021/03/15 04:41:05;;;;;;;4.28;3.87;;;3.10;99.90;;;;;;472665;250;27538;-74
2021/03/15 04:43:07;;;;;;;4.37;3.70;;;3.10;99.90;;;;;;472667;250;27522;-72
2021/03/15 04:45:08;;;;;;;6.25;4.20;;;3.10;99.90;;;;;;472682;250;27530;-73
2021/03/15 04:47:09;;;;;;;9.00;4.03;;;3.00;99.90;;;;;;472674;250;27611;-72
2021/03/15 04:49:10;;;;;;;9.70;4.22;;;3.00;99.90;;;;;;472690;250;27641;-72
2021/03/15 04:51:12;;;;;;;5.78;3.80;;;3.00;99.90;;;;;;472659;250;27534;-72
2021/03/15 04:53:13;;;;;;;4.75;3.80;;;3.00;99.90;;;;;;472662;250;27712;-72
2021/03/15 04:55:14;;;;;;;4.25;3.85;;;2.90;99.90;;;;;;472672;250;27538;-72
2021/03/15 04:57:15;;;;;;;6.28;4.85;;;2.90;99.90;;;;;;472655;250;27632;-72
2021/03/15 04:59:17;;;;;;;4.32;3.90;;;2.90;99.90;;;;;;472658;250;28036;-73
2021/03/15 05:01:18;;;;;;;6.43;4.50;;;2.90;99.90;;;;;;472639;250;28007;-72
2021/03/15 05:03:19;;;;;;;6.53;4.35;;;2.90;99.90;;;;;;472656;250;28003;-72
2021/03/15 05:05:20;;;;;;;6.05;5.43;;;2.90;99.90;;;;;;472679;250;28086;-73
2021/03/15 05:07:22;;;;;;;5.18;4.55;;;2.90;99.90;;;;;;472660;250;27533;-73
2021/03/15 05:09:23;;;;;;;5.25;4.30;;;2.90;99.90;;;;;;472664;250;27542;-73
2021/03/15 05:11:24;;;;;;;4.87;3.95;;;2.90;99.90;;;;;;472649;250;27547;-72
2021/03/15 05:13:25;;;;;;;4.57;3.97;;;2.90;99.90;;;;;;472659;250;27543;-72
2021/03/15 05:15:27;;;;;;;6.37;3.40;;;2.90;99.90;;;;;;472660;250;27639;-74
2021/03/15 05:17:28;;;;;;;4.10;3.70;;;2.90;99.90;;;;;;472655;250;27522;-74
2021/03/15 05:19:29;;;;;;;3.78;3.00;;;2.90;99.90;;;;;;472671;250;27623;-72
2021/03/15 05:21:30;;;;;;;4.95;3.37;;;2.80;99.90;;;;;;472662;250;27609;-71
2021/03/15 05:23:32;;;;;;;6.28;3.42;;;2.90;99.90;;;;;;472658;250;27539;-73
2021/03/15 05:25:33;;;;;;;3.30;2.95;;;2.90;99.90;;;;;;472659;250;27522;-72
2021/03/15 05:27:34;;;;;;;4.35;3.25;;;2.90;99.90;;;;;;472679;250;28082;-72
2021/03/15 05:29:35;;;;;;;3.60;3.30;;;2.80;99.90;;;;;;472669;250;28085;-72
2021/03/15 05:31:37;;;;;;;4.28;3.20;;;2.70;99.90;;;;;;472656;250;27973;-72
2021/03/15 05:33:38;;;;;;;3.90;3.20;;;2.70;99.90;;;;;;472668;250;28106;-74
2021/03/15 05:35:39;;;;;;;3.28;2.90;;;2.70;99.90;;;;;;472662;250;27547;-73
2021/03/15 05:37:40;;;;;;;3.92;3.30;;;2.70;99.90;;;;;;472660;250;27545;-73
2021/03/15 05:39:42;;;;;;;3.78;3.03;;;2.70;99.90;;;;;;472712;250;27626;-72
2021/03/15 05:41:43;;;;;;;3.60;3.10;;;2.70;99.90;;;;;;472709;250;27551;-73
2021/03/15 05:43:44;;;;;;;6.22;3.22;;;2.70;99.90;;;;;;472707;250;27518;-75
2021/03/15 05:45:45;;;;;;;2.97;2.78;;;2.70;99.90;;;;;;472666;250;27598;-72
2021/03/15 05:47:47;;;;;;;3.65;3.15;;;2.70;99.90;;;;;;472678;250;27598;-72
2021/03/15 05:49:48;;;;;;;3.90;2.95;;;2.60;99.90;;;;;;472671;250;27517;-72
2021/03/15 05:51:49;;;;;;;3.10;2.80;;;2.60;99.90;;;;;;472669;250;27540;-72
2021/03/15 05:53:51;;;;;;;3.25;2.83;;;2.60;99.90;;;;;;472660;250;28081;-74
2021/03/15 05:55:52;;;;;;;3.08;2.87;;;2.60;99.90;;;;;;472652;250;27949;-72
2021/03/15 05:57:53;;;;;;;3.22;2.78;;;2.50;99.90;;;;;;472661;250;27967;-73
2021/03/15 05:59:54;;;;;;;2.75;2.55;;;2.50;99.90;;;;;;472659;250;28076;-73
2021/03/15 06:01:56;;;;;;;2.92;2.60;;;2.50;99.90;;;;;;472651;250;27609;-72
2021/03/15 06:03:57;;;;;;;5.25;3.05;;;2.50;99.90;;;;;;472657;250;27515;-73
2021/03/15 06:05:58;;;;;;;3.47;2.80;;;2.50;99.90;;;;;;472671;250;27514;-72
2021/03/15 06:07:59;;;;;;;3.00;2.70;;;2.50;99.90;;;;;;472672;250;28066;-71
2021/03/15 06:10:01;;;;;;;3.03;2.83;;;2.50;99.90;;;;;;472666;250;27625;-73
2021/03/15 06:12:02;;;;;;;3.22;2.92;;;2.60;99.90;;;;;;472597;251;27660;-72
2021/03/15 06:14:03;;;;;;;3.58;2.90;;;2.60;99.90;;;;;;472658;250;27542;-72
2021/03/15 06:16:04;;;;;;;5.05;3.10;;;2.60;99.90;;;;;;472682;250;27531;-72
2021/03/15 06:18:06;;;;;;;3.50;3.20;;;2.60;99.90;;;;;;472694;250;27550;-72
2021/03/15 06:20:07;;;;;;;3.80;3.28;;;2.60;99.90;;;;;;472688;250;27531;-73
2021/03/15 06:22:08;;;;;;;4.87;3.20;;;2.70;99.90;;;;;;472685;250;28092;-73
2021/03/15 06:24:09;;;;;;;3.70;2.85;;;2.70;99.90;;;;;;472668;250;28005;-72
2021/03/15 06:26:12;;;;;;;3.92;2.80;;;2.80;99.90;;;;;;472682;250;28131;-74
2021/03/15 06:28:12;;;;;;;2.70;2.50;;;2.80;99.90;;;;;;472658;250;28081;-72
2021/03/15 06:30:13;;;;;;;4.72;2.80;;;2.80;99.90;;;;;;472685;250;27538;-73
2021/03/15 06:32:14;;;;;;;4.47;3.00;;;2.80;99.90;;;;;;472668;250;27535;-73
2021/03/15 06:34:16;;;;;;;2.67;2.47;;;2.70;99.90;;;;;;472677;250;27527;-72
2021/03/15 06:36:17;;;;;;;2.95;2.20;;;2.70;99.90;;;;;;472684;250;27529;-73
2021/03/15 06:38:18;;;;;;;2.42;2.20;;;2.70;99.90;;;;;;472669;250;27543;-73
2021/03/15 06:40:19;;;;;;;3.33;2.20;;;2.70;99.90;;;;;;472689;250;27542;-73
2021/03/15 06:42:21;;;;;;;2.08;1.98;;;2.80;99.90;;;;;;472673;250;27542;-73
2021/03/15 06:44:22;;;;;;;2.45;2.25;;;2.80;99.90;;;;;;472693;250;27526;-72
2021/03/15 06:46:23;;;;;;;2.42;2.30;;;2.80;99.90;;;;;;472674;250;27700;-73
2021/03/15 06:48:25;;;;;;;2.30;2.20;;;2.80;99.90;;;;;;472674;250;28077;-72
2021/03/15 06:50:26;;;;;;;2.72;2.53;;;2.70;99.90;;;;;;472662;250;28011;-73
2021/03/15 06:52:27;;;;;;;2.92;2.03;;;2.80;99.90;;;;;;472692;250;28029;-74
2021/03/15 06:54:28;;;;;;;3.72;1.90;;;2.80;99.90;;;;;;472683;250;28019;-73
2021/03/15 06:56:29;;;;;;;2.25;2.05;;;2.80;99.90;;;;;;472685;250;28049;-72
2021/03/15 06:58:33;;;;;;;2.50;2.00;;;2.90;99.90;;;;;;472679;250;27618;-73
2021/03/15 07:00:32;;;;;;;2.33;2.15;;;2.90;99.90;;;;;;472563;250;27619;-74
2021/03/15 07:02:33;;;;;;;2.10;2.00;;;2.90;99.90;;;;;;472688;250;27959;-75
2021/03/15 07:04:34;;;;;;;3.35;2.45;;;2.90;99.90;;;;;;472683;250;27525;-74
2021/03/15 07:06:36;;;;;;;2.55;2.40;;;3.00;99.90;;;;;;472676;250;27539;-74
2021/03/15 07:08:37;;;;;;;3.03;2.60;;;3.00;99.90;;;;;;472668;250;27539;-72
2021/03/15 07:10:38;;;;;;;2.65;2.55;;;3.10;99.90;;;;;;472670;250;27530;-72
2021/03/15 07:12:39;;;;;;;2.70;2.50;;;3.10;99.90;;;;;;472681;250;27629;-72
2021/03/15 07:14:41;;;;;;;2.55;2.35;;;3.20;99.90;;;;;;472674;250;27539;-72
2021/03/15 07:16:44;;;;;;;2.50;2.30;;;3.20;99.90;;;;;;472681;250;28127;-74
2021/03/15 07:18:43;;;;;;;3.33;3.08;;;3.20;99.90;;;;;;472617;251;28082;-72
2021/03/15 07:20:44;;;;;;;3.12;2.83;;;3.20;99.90;;;;;;472655;250;27997;-73
2021/03/15 07:22:46;;;;;;;2.87;2.67;;;3.20;99.90;;;;;;472670;250;28001;-72
2021/03/15 07:24:47;;;;;;;3.62;3.15;;;3.20;99.90;;;;;;472657;250;27618;-73
2021/03/15 07:26:48;;;;;;;3.42;3.12;;;3.20;99.90;;;;;;472677;248;27532;-73
2021/03/15 07:28:49;;;;;;;3.05;2.80;;;3.30;99.90;;;;;;472574;250;27538;-73
2021/03/15 07:30:51;;;;;;;3.75;3.45;;;3.30;99.90;;;;;;472665;250;27538;-73
2021/03/15 07:32:52;;;;;;;7.43;3.50;;;3.30;99.90;;;;;;472656;248;27539;-73
2021/03/15 07:34:53;;;;;;;6.68;5.60;;;3.40;99.90;;;;;;472684;250;27658;-73
2021/03/15 07:36:54;;;;;;;6.05;3.50;;;3.40;99.90;;;;;;469728;248;27498;-72
2021/03/15 07:38:56;;;;;;;6.30;4.53;;;3.50;99.90;;;;;;467397;249;27545;-73
2021/03/15 07:40:57;;;;;;;6.28;4.07;;;3.50;99.90;;;;;;467436;252;27537;-74
2021/03/15 07:42:58;;;;;;;8.20;4.55;;;3.60;99.90;;;;;;467422;252;27957;-73
2021/03/15 07:45:00;;;;;;;4.78;4.28;;;3.60;99.90;;;;;;467673;248;28025;-73
2021/03/15 07:47:01;;;;;;;4.43;3.70;;;3.70;99.90;;;;;;472361;250;27939;-73
2021/03/15 07:49:02;;;;;;;4.53;4.07;;;3.70;99.90;;;;;;467383;252;28004;-73
2021/03/15 07:51:03;;;;;;;5.12;4.55;;;3.80;99.90;;;;;;467395;252;27544;-74
2021/03/15 07:53:04;;;;;;;5.18;4.68;;;3.80;99.90;;;;;;467426;252;27640;-73
2021/03/15 07:55:06;;;;;;;6.40;5.10;;;3.80;99.90;;;;;;467417;252;27549;-75
2021/03/15 07:57:07;;;;;;;5.12;4.62;;;3.80;99.90;;;;;;467427;252;27558;-72
2021/03/15 07:59:08;;;;;;;6.37;5.43;;;3.80;99.90;;;;;;467409;252;27528;-73
2021/03/15 08:01:09;;;;;;;6.78;5.95;;;3.90;99.90;;;;;;467394;252;27600;-74
2021/03/15 08:03:11;;;;;;;6.20;5.20;;;3.90;99.90;;;;;;467418;252;27596;-73
2021/03/15 08:05:12;;;;;;;7.57;6.22;;;4.00;99.90;;;;;;467429;252;27632;-73
2021/03/15 08:07:13;;;;;;;6.28;5.57;;;4.00;99.90;;;;;;467425;252;27640;-72
2021/03/15 08:09:14;;;;;;;5.82;5.32;;;4.00;99.90;;;;;;467413;252;27617;-73
2021/03/15 08:11:16;;;;;;;6.82;5.72;;;4.10;99.90;;;;;;467416;252;28071;-74
2021/03/15 08:13:17;;;;;;;7.25;6.50;;;4.10;99.90;;;;;;467408;252;27999;-72
2021/03/15 08:15:18;;;;;;;7.90;6.60;;;4.10;99.90;;;;;;467452;252;28002;-75
2021/03/15 08:17:19;;;;;;;7.20;6.50;;;4.10;99.90;;;;;;467440;252;27601;-73
2021/03/15 08:19:21;;;;;;;9.73;6.43;;;4.10;99.90;;;;;;467420;252;27668;-73
2021/03/15 08:21:22;;;;;;;10.02;7.72;;;4.10;99.90;;;;;;467469;252;27549;-73
2021/03/15 08:23:23;;;;;;;9.73;6.62;;;4.10;99.90;;;;;;467412;252;27551;-73
2021/03/15 08:25:24;;;;;;;9.00;6.87;;;4.20;99.90;;;;;;467415;252;27545;-74
2021/03/15 08:27:26;;;;;;;8.10;6.60;;;4.20;99.90;;;;;;467394;252;27517;-72
2021/03/15 08:29:27;;;;;;;9.70;6.82;;;4.30;99.90;;;;;;467403;252;27544;-72
2021/03/15 08:31:28;;;;;;;9.18;6.80;;;4.30;99.90;;;;;;467413;252;27568;-74
2021/03/15 08:33:29;;;;;;;9.68;7.25;;;4.30;99.90;;;;;;467390;252;28087;-73
2021/03/15 08:35:31;;;;;;;9.80;7.65;;;4.40;99.90;;;;;;467421;252;28031;-74
2021/03/15 08:37:32;;;;;;;7.53;6.68;;;4.40;99.90;;;;;;467390;252;28054;-72
2021/03/15 08:39:33;;;;;;;8.95;7.55;;;4.40;99.90;;;;;;467393;252;28107;-73
2021/03/15 08:41:34;;;;;;;6.78;6.05;;;4.50;99.90;;;;;;467418;252;27537;-73
2021/03/15 08:43:36;;;;;;;6.75;6.03;;;4.50;99.90;;;;;;467411;252;27544;-73
2021/03/15 08:45:37;;;;;;;7.78;6.62;;;4.60;99.90;;;;;;467411;252;27549;-75
2021/03/15 08:47:38;;;;;;;9.52;6.28;;;4.70;99.90;;;;;;467435;252;27607;-73
2021/03/15 08:49:42;;;;;;;7.28;6.10;;;4.70;99.90;;;;;;467414;252;27643;-73
2021/03/15 08:51:44;;;;;;;7.47;6.47;;;4.70;99.90;;;;;;467282;254;27557;-74
2021/03/15 08:53:44;;;;;;;6.87;6.10;;;4.70;99.90;;;;;;467229;254;27668;-73
2021/03/15 08:55:45;;;;;;;6.35;5.55;;;4.70;99.90;;;;;;467332;252;28070;-73
2021/03/15 08:57:44;;;;;;;6.20;5.20;;;4.70;99.90;;;;;;467333;254;28130;-74
2021/03/15 08:59:46;;;;;;;7.82;5.87;;;4.70;99.90;;;;;;467380;252;28062;-74
2021/03/15 09:01:47;;;;;;;5.90;5.30;;;4.70;99.90;;;;;;467415;252;27528;-73
2021/03/15 09:03:48;;;;;;;6.75;4.68;;;4.70;99.90;;;;;;467420;252;27546;-73
2021/03/15 09:05:49;;;;;;;6.12;5.10;;;4.80;99.90;;;;;;467405;252;27515;-73
2021/03/15 09:07:51;;;;;;;4.45;4.05;;;4.80;99.90;;;;;;467416;252;27544;-73
2021/03/15 09:09:52;;;;;;;4.30;3.90;;;4.90;99.90;;;;;;467385;252;27526;-75
2021/03/15 09:11:53;;;;;;;4.20;3.80;;;4.90;99.90;;;;;;467408;252;27547;-73
2021/03/15 09:13:54;;;;;;;6.40;4.07;;;5.00;99.90;;;;;;467397;252;27530;-74
2021/03/15 09:15:56;;;;;;;3.20;2.90;;;5.10;99.90;;;;;;467405;252;27611;-72
2021/03/15 09:17:57;;;;;;;3.50;3.20;;;5.20;99.90;;;;;;467358;252;28008;-73
2021/03/15 09:19:58;;;;;;;4.30;3.47;;;5.20;99.90;;;;;;467398;252;28002;-73
2021/03/15 09:21:59;;;;;;;3.97;3.10;;;5.30;99.90;;;;;;467408;252;27528;-73
2021/03/15 09:24:01;;;;;;;3.00;2.75;;;5.30;99.90;;;;;;462476;254;27567;-74
2021/03/15 09:26:02;;;;;;;2.60;2.40;;;5.40;99.90;;;;;;467284;252;27636;-72
2021/03/15 09:28:03;;;;;;;2.90;2.60;;;5.40;99.90;;;;;;467299;252;27655;-73
2021/03/15 09:30:04;;;;;;;2.78;2.58;;;5.40;99.90;;;;;;467392;252;27521;-74
2021/03/15 09:32:06;;;;;;;3.30;2.55;;;5.50;99.90;;;;;;467441;252;27528;-73
2021/03/15 09:34:07;;;;;;;2.33;2.22;;;5.50;99.90;;;;;;467438;252;28084;-74
2021/03/15 09:36:08;;;;;;;2.60;2.40;;;5.60;99.90;;;;;;467447;252;28346;-73
2021/03/15 09:38:09;;;;;;;2.85;2.53;;;5.60;99.90;;;;;;467450;252;27531;-73
2021/03/15 09:40:11;;;;;;;1.90;1.80;;;5.50;99.90;;;;;;467446;252;27561;-73
2021/03/15 09:42:12;;;;;;;2.75;2.00;;;5.50;99.90;;;;;;467452;252;27644;-73
2021/03/15 09:44:13;;;;;;;1.90;1.80;;;5.50;99.90;;;;;;467454;252;27632;-74
2021/03/15 09:46:14;;;;;;;1.90;1.80;;;5.50;99.90;;;;;;467457;252;27521;-73
2021/03/15 09:48:16;;;;;;;1.90;1.80;;;5.50;99.90;;;;;;467468;252;27532;-73
2021/03/15 09:50:17;;;;;;;1.65;1.55;;;5.50;99.90;;;;;;467483;252;27959;-74
2021/03/15 09:52:18;;;;;;;1.50;1.40;;;5.50;99.90;;;;;;467845;248;28482;-75
2021/03/15 09:54:19;;;;;;;1.55;1.45;;;5.60;99.90;;;;;;464836;248;27419;-73
2021/03/15 09:56:21;;;;;;;1.30;1.30;;;5.60;99.90;;;;;;464832;254;27453;-72
2021/03/15 09:58:22;;;;;;;1.30;1.30;;;5.50;99.90;;;;;;464793;254;27458;-73
2021/03/15 10:00:23;;;;;;;1.62;1.52;;;5.40;99.90;;;;;;464773;254;27450;-73
2021/03/15 10:02:25;;;;;;;1.60;1.50;;;5.40;99.90;;;;;;464778;254;27539;-72
2021/03/15 10:04:26;;;;;;;2.97;1.70;;;5.40;99.90;;;;;;464768;250;28017;-73
2021/03/15 10:06:27;;;;;;;1.60;1.50;;;5.50;99.90;;;;;;464769;250;27919;-73
2021/03/15 10:08:28;;;;;;;1.37;1.37;;;5.60;99.90;;;;;;464787;254;27539;-73
2021/03/15 10:10:30;;;;;;;1.90;1.65;;;5.80;99.90;;;;;;464783;254;27441;-73
2021/03/15 10:12:31;;;;;;;1.58;1.48;;;5.90;99.90;;;;;;464797;250;27470;-73
2021/03/15 10:14:32;;;;;;;2.47;1.58;;;5.90;99.90;;;;;;464761;251;27454;-73
2021/03/15 10:16:33;;;;;;;1.73;1.62;;;5.90;99.90;;;;;;464788;254;27457;-74
2021/03/15 10:18:35;;;;;;;1.60;1.50;;;5.90;99.90;;;;;;464779;254;27917;-73
2021/03/15 10:20:36;;;;;;;1.60;1.50;;;6.00;99.90;;;;;;464736;254;28855;-74
2021/03/15 10:22:37;;;;;;;1.73;1.62;;;6.10;99.90;;;;;;464804;254;27995;-73
2021/03/15 10:24:39;;;;;;;2.28;1.87;;;6.30;99.90;;;;;;464768;254;27484;-74
2021/03/15 10:26:40;;;;;;;2.08;1.98;;;6.30;99.90;;;;;;464771;254;27441;-73
2021/03/15 10:28:41;;;;;;;2.90;1.80;;;6.30;99.90;;;;;;464777;254;27549;-73
2021/03/15 10:30:42;;;;;;;1.65;1.55;;;6.20;99.90;;;;;;464814;254;28889;-73
2021/03/15 10:32:43;;;;;;;1.70;1.60;;;6.30;99.90;;;;;;464803;254;27442;-74
2021/03/15 10:34:45;;;;;;;1.73;1.62;;;6.20;99.90;;;;;;464756;251;27452;-73